sensor_id;sensor_type;location;lat;lon;timestamp;pressure;altitude;pressure_sealevel;temperature;humidity
59877;BME280;45749;51.140;17.184;2023-02-07T00:01:45;102674.25;;;-4.98;87.73
59877;BME280;45749;51.140;17.184;2023-02-07T00:04:11;102671.56;;;-5.01;87.53
59877;BME280;45749;51.140;17.184;2023-02-07T00:06:36;102685.28;;;-5.02;87.43
59877;BME280;45749;51.140;17.184;2023-02-07T00:09:03;102680.03;;;-5.05;87.42
59877;BME280;45749;51.140;17.184;2023-02-07T00:11:28;102685.13;;;-5.07;87.52
59877;BME280;45749;51.140;17.184;2023-02-07T00:13:55;102682.50;;;-5.10;87.57
59877;BME280;45749;51.140;17.184;2023-02-07T00:16:20;102685.00;;;-5.11;87.73
59877;BME280;45749;51.140;17.184;2023-02-07T00:18:46;102689.28;;;-5.12;87.65
59877;BME280;45749;51.140;17.184;2023-02-07T00:21:13;102691.81;;;-5.13;87.59
59877;BME280;45749;51.140;17.184;2023-02-07T00:23:39;102684.03;;;-5.15;87.64
59877;BME280;45749;51.140;17.184;2023-02-07T00:26:04;102691.75;;;-5.16;87.98
59877;BME280;45749;51.140;17.184;2023-02-07T00:28:30;102693.41;;;-5.17;88.03
59877;BME280;45749;51.140;17.184;2023-02-07T00:31:02;102696.81;;;-5.18;87.94
59877;BME280;45749;51.140;17.184;2023-02-07T00:33:28;102700.25;;;-5.19;87.55
59877;BME280;45749;51.140;17.184;2023-02-07T00:36:00;102699.31;;;-5.21;87.40
59877;BME280;45749;51.140;17.184;2023-02-07T00:38:25;102703.56;;;-5.23;87.37
59877;BME280;45749;51.140;17.184;2023-02-07T00:40:51;102699.19;;;-5.26;87.08
59877;BME280;45749;51.140;17.184;2023-02-07T00:43:20;102704.25;;;-5.27;87.09
59877;BME280;45749;51.140;17.184;2023-02-07T00:45:45;102704.22;;;-5.29;86.96
59877;BME280;45749;51.140;17.184;2023-02-07T00:48:11;102694.69;;;-5.33;87.07
59877;BME280;45749;51.140;17.184;2023-02-07T00:50:36;102693.75;;;-5.35;86.96
59877;BME280;45749;51.140;17.184;2023-02-07T00:53:02;102687.66;;;-5.37;86.97
59877;BME280;45749;51.140;17.184;2023-02-07T00:55:27;102682.44;;;-5.40;86.83
59877;BME280;45749;51.140;17.184;2023-02-07T00:57:52;102673.75;;;-5.44;86.95
59877;BME280;45749;51.140;17.184;2023-02-07T01:00:18;102664.25;;;-5.46;86.94
59877;BME280;45749;51.140;17.184;2023-02-07T01:02:43;102657.25;;;-5.50;86.89
59877;BME280;45749;51.140;17.184;2023-02-07T01:05:08;102643.56;;;-5.49;86.87
59877;BME280;45749;51.140;17.184;2023-02-07T01:07:34;102641.78;;;-5.52;86.95
59877;BME280;45749;51.140;17.184;2023-02-07T01:09:59;102632.25;;;-5.54;86.99
59877;BME280;45749;51.140;17.184;2023-02-07T01:12:24;102627.06;;;-5.56;87.00
59877;BME280;45749;51.140;17.184;2023-02-07T01:14:49;102623.66;;;-5.55;87.02
59877;BME280;45749;51.140;17.184;2023-02-07T01:17:15;102627.88;;;-5.57;86.93
59877;BME280;45749;51.140;17.184;2023-02-07T01:19:40;102619.25;;;-5.59;86.74
59877;BME280;45749;51.140;17.184;2023-02-07T01:22:05;102619.28;;;-5.57;86.73
59877;BME280;45749;51.140;17.184;2023-02-07T01:24:31;102617.56;;;-5.58;86.81
59877;BME280;45749;51.140;17.184;2023-02-07T01:26:56;102614.88;;;-5.61;86.75
59877;BME280;45749;51.140;17.184;2023-02-07T01:29:21;102609.66;;;-5.64;86.82
59877;BME280;45749;51.140;17.184;2023-02-07T01:31:46;102614.78;;;-5.64;86.71
59877;BME280;45749;51.140;17.184;2023-02-07T01:34:12;102618.97;;;-5.68;86.55
59877;BME280;45749;51.140;17.184;2023-02-07T01:36:38;102606.13;;;-5.68;86.90
59877;BME280;45749;51.140;17.184;2023-02-07T01:39:03;102613.00;;;-5.67;86.97
59877;BME280;45749;51.140;17.184;2023-02-07T01:41:29;102611.19;;;-5.70;86.87
59877;BME280;45749;51.140;17.184;2023-02-07T01:44:07;102612.03;;;-5.71;86.71
59877;BME280;45749;51.140;17.184;2023-02-07T01:46:33;102610.13;;;-5.76;86.71
59877;BME280;45749;51.140;17.184;2023-02-07T01:49:09;102606.59;;;-5.80;86.87
59877;BME280;45749;51.140;17.184;2023-02-07T01:51:35;102612.47;;;-5.84;86.89
59877;BME280;45749;51.140;17.184;2023-02-07T01:54:03;102602.09;;;-5.87;87.05
59877;BME280;45749;51.140;17.184;2023-02-07T01:56:30;102601.13;;;-5.91;87.25
59877;BME280;45749;51.140;17.184;2023-02-07T01:58:56;102606.28;;;-5.91;87.31
59877;BME280;45749;51.140;17.184;2023-02-07T02:01:23;102610.50;;;-5.93;87.38
59877;BME280;45749;51.140;17.184;2023-02-07T02:03:50;102597.63;;;-5.94;87.17
59877;BME280;45749;51.140;17.184;2023-02-07T02:06:15;102604.38;;;-5.98;87.32
59877;BME280;45749;51.140;17.184;2023-02-07T02:08:41;102612.03;;;-5.99;87.36
59877;BME280;45749;51.140;17.184;2023-02-07T02:13:46;102608.53;;;-6.01;87.37
59877;BME280;45749;51.140;17.184;2023-02-07T02:26:48;102628.03;;;-6.08;87.11
59877;BME280;45749;51.140;17.184;2023-02-07T02:29:45;102615.13;;;-6.09;87.00
59877;BME280;45749;51.140;17.184;2023-02-07T02:35:00;102610.72;;;-6.14;87.30
59877;BME280;45749;51.140;17.184;2023-02-07T02:37:39;102615.75;;;-6.17;87.08
59877;BME280;45749;51.140;17.184;2023-02-07T02:40:08;102613.09;;;-6.20;87.04
59877;BME280;45749;51.140;17.184;2023-02-07T02:42:39;102614.81;;;-6.19;87.25
59877;BME280;45749;51.140;17.184;2023-02-07T02:47:32;102611.34;;;-6.21;87.03
59877;BME280;45749;51.140;17.184;2023-02-07T02:49:58;102608.66;;;-6.24;87.08
59877;BME280;45749;51.140;17.184;2023-02-07T02:52:25;102606.88;;;-6.26;87.10
59877;BME280;45749;51.140;17.184;2023-02-07T02:54:50;102607.63;;;-6.29;86.98
59877;BME280;45749;51.140;17.184;2023-02-07T03:07:58;102604.63;;;-6.43;87.23
59877;BME280;45749;51.140;17.184;2023-02-07T03:10:38;102615.75;;;-6.42;87.24
59877;BME280;45749;51.140;17.184;2023-02-07T03:13:10;102623.44;;;-6.44;87.29
59877;BME280;45749;51.140;17.184;2023-02-07T03:15:51;102629.34;;;-6.46;87.40
59877;BME280;45749;51.140;17.184;2023-02-07T03:18:27;102626.66;;;-6.49;87.40
59877;BME280;45749;51.140;17.184;2023-02-07T03:23:53;102617.22;;;-6.50;87.41
59877;BME280;45749;51.140;17.184;2023-02-07T03:26:20;102623.19;;;-6.51;87.43
59877;BME280;45749;51.140;17.184;2023-02-07T03:28:47;102623.97;;;-6.52;87.35
59877;BME280;45749;51.140;17.184;2023-02-07T03:31:13;102629.09;;;-6.54;87.36
59877;BME280;45749;51.140;17.184;2023-02-07T03:33:40;102626.50;;;-6.54;87.37
59877;BME280;45749;51.140;17.184;2023-02-07T03:36:09;102623.88;;;-6.55;87.49
59877;BME280;45749;51.140;17.184;2023-02-07T03:38:37;102623.88;;;-6.55;87.45
59877;BME280;45749;51.140;17.184;2023-02-07T03:41:06;102628.91;;;-6.58;87.39
59877;BME280;45749;51.140;17.184;2023-02-07T03:43:34;102633.25;;;-6.57;87.50
59877;BME280;45749;51.140;17.184;2023-02-07T03:46:01;102640.06;;;-6.58;87.34
59877;BME280;45749;51.140;17.184;2023-02-07T03:48:26;102636.56;;;-6.60;87.32
59877;BME280;45749;51.140;17.184;2023-02-07T03:50:51;102639.06;;;-6.62;87.25
59877;BME280;45749;51.140;17.184;2023-02-07T03:53:17;102644.16;;;-6.63;87.24
59877;BME280;45749;51.140;17.184;2023-02-07T03:55:43;102638.09;;;-6.65;87.36
59877;BME280;45749;51.140;17.184;2023-02-07T03:58:08;102644.94;;;-6.66;87.51
59877;BME280;45749;51.140;17.184;2023-02-07T04:00:33;102644.94;;;-6.66;87.37
59877;BME280;45749;51.140;17.184;2023-02-07T04:02:59;102649.16;;;-6.68;87.35
59877;BME280;45749;51.140;17.184;2023-02-07T04:05:24;102652.53;;;-6.69;87.41
59877;BME280;45749;51.140;17.184;2023-02-07T04:07:49;102645.66;;;-6.70;87.43
59877;BME280;45749;51.140;17.184;2023-02-07T04:10:15;102648.22;;;-6.70;87.34
59877;BME280;45749;51.140;17.184;2023-02-07T04:12:40;102643.00;;;-6.71;87.50
59877;BME280;45749;51.140;17.184;2023-02-07T04:15:06;102645.53;;;-6.73;87.40
59877;BME280;45749;51.140;17.184;2023-02-07T04:17:31;102643.81;;;-6.74;87.47
59877;BME280;45749;51.140;17.184;2023-02-07T04:19:56;102636.03;;;-6.75;87.37
59877;BME280;45749;51.140;17.184;2023-02-07T04:22:22;102637.69;;;-6.77;87.33
59877;BME280;45749;51.140;17.184;2023-02-07T04:24:47;102631.66;;;-6.78;87.39
59877;BME280;45749;51.140;17.184;2023-02-07T04:27:12;102639.31;;;-6.79;87.35
59877;BME280;45749;51.140;17.184;2023-02-07T04:29:38;102641.84;;;-6.81;87.33
59877;BME280;45749;51.140;17.184;2023-02-07T04:32:03;102646.03;;;-6.83;87.40
59877;BME280;45749;51.140;17.184;2023-02-07T04:34:29;102642.53;;;-6.85;87.49
59877;BME280;45749;51.140;17.184;2023-02-07T04:36:54;102639.06;;;-6.87;87.43
59877;BME280;45749;51.140;17.184;2023-02-07T04:39:19;102642.38;;;-6.90;87.29
59877;BME280;45749;51.140;17.184;2023-02-07T04:41:45;102637.16;;;-6.91;87.43
59877;BME280;45749;51.140;17.184;2023-02-07T04:44:10;102637.16;;;-6.91;87.49
59877;BME280;45749;51.140;17.184;2023-02-07T04:46:35;102633.81;;;-6.90;87.54
59877;BME280;45749;51.140;17.184;2023-02-07T04:49:01;102641.50;;;-6.90;87.56
59877;BME280;45749;51.140;17.184;2023-02-07T04:51:28;102639.72;;;-6.91;87.46
59877;BME280;45749;51.140;17.184;2023-02-07T04:53:53;102634.56;;;-6.93;87.51
59877;BME280;45749;51.140;17.184;2023-02-07T04:56:18;102648.22;;;-6.94;87.42
59877;BME280;45749;51.140;17.184;2023-02-07T04:58:43;102648.16;;;-6.95;87.60
59877;BME280;45749;51.140;17.184;2023-02-07T05:01:09;102649.03;;;-6.95;87.65
59877;BME280;45749;51.140;17.184;2023-02-07T05:03:34;102645.59;;;-6.95;87.62
59877;BME280;45749;51.140;17.184;2023-02-07T05:05:59;102641.41;;;-6.93;87.57
59877;BME280;45749;51.140;17.184;2023-02-07T05:08:24;102633.63;;;-6.95;87.51
59877;BME280;45749;51.140;17.184;2023-02-07T05:10:50;102639.63;;;-6.94;87.53
59877;BME280;45749;51.140;17.184;2023-02-07T05:13:16;102630.13;;;-6.97;87.51
59877;BME280;45749;51.140;17.184;2023-02-07T05:15:41;102624.13;;;-6.97;87.53
59877;BME280;45749;51.140;17.184;2023-02-07T05:18:07;102622.47;;;-6.95;87.72
59877;BME280;45749;51.140;17.184;2023-02-07T05:20:32;102626.75;;;-6.96;87.67
59877;BME280;45749;51.140;17.184;2023-02-07T05:22:57;102624.13;;;-6.97;87.42
59877;BME280;45749;51.140;17.184;2023-02-07T05:25:23;102630.03;;;-7.00;87.38
59877;BME280;45749;51.140;17.184;2023-02-07T05:27:48;102633.38;;;-7.01;87.56
59877;BME280;45749;51.140;17.184;2023-02-07T05:30:13;102631.66;;;-7.02;87.49
59877;BME280;45749;51.140;17.184;2023-02-07T05:32:39;102635.06;;;-7.03;87.63
59877;BME280;45749;51.140;17.184;2023-02-07T05:35:22;102634.09;;;-7.05;87.47
59877;BME280;45749;51.140;17.184;2023-02-07T05:37:48;102647.75;;;-7.06;87.63
59877;BME280;45749;51.140;17.184;2023-02-07T05:40:13;102650.34;;;-7.06;87.55
59877;BME280;45749;51.140;17.184;2023-02-07T05:42:38;102640.00;;;-7.08;87.43
59877;BME280;45749;51.140;17.184;2023-02-07T05:45:04;102641.69;;;-7.08;87.53
59877;BME280;45749;51.140;17.184;2023-02-07T05:47:30;102634.94;;;-7.06;87.58
59877;BME280;45749;51.140;17.184;2023-02-07T05:49:55;102631.50;;;-7.06;87.57
59877;BME280;45749;51.140;17.184;2023-02-07T05:52:20;102629.81;;;-7.06;87.39
59877;BME280;45749;51.140;17.184;2023-02-07T05:54:46;102628.84;;;-7.08;87.39
59877;BME280;45749;51.140;17.184;2023-02-07T05:57:11;102626.13;;;-7.13;87.45
59877;BME280;45749;51.140;17.184;2023-02-07T05:59:37;102638.97;;;-7.13;87.56
59877;BME280;45749;51.140;17.184;2023-02-07T06:02:02;102645.81;;;-7.13;87.69
59877;BME280;45749;51.140;17.184;2023-02-07T06:04:27;102649.16;;;-7.14;87.65
59877;BME280;45749;51.140;17.184;2023-02-07T06:06:52;102654.28;;;-7.14;87.76
59877;BME280;45749;51.140;17.184;2023-02-07T06:09:18;102652.63;;;-7.14;87.83
59877;BME280;45749;51.140;17.184;2023-02-07T06:11:43;102647.50;;;-7.14;87.79
59877;BME280;45749;51.140;17.184;2023-02-07T06:14:08;102659.50;;;-7.13;87.78
59877;BME280;45749;51.140;17.184;2023-02-07T06:16:34;102655.13;;;-7.15;87.77
59877;BME280;45749;51.140;17.184;2023-02-07T06:18:59;102657.66;;;-7.17;87.86
59877;BME280;45749;51.140;17.184;2023-02-07T06:21:24;102657.66;;;-7.17;87.82
59877;BME280;45749;51.140;17.184;2023-02-07T06:23:50;102657.66;;;-7.17;87.96
59877;BME280;45749;51.140;17.184;2023-02-07T06:26:15;102657.56;;;-7.18;87.91
59877;BME280;45749;51.140;17.184;2023-02-07T06:28:41;102660.13;;;-7.18;87.89
59877;BME280;45749;51.140;17.184;2023-02-07T06:31:06;102665.22;;;-7.20;87.78
59877;BME280;45749;51.140;17.184;2023-02-07T06:33:32;102666.97;;;-7.19;87.96
59877;BME280;45749;51.140;17.184;2023-02-07T06:35:57;102661.00;;;-7.18;87.96
59877;BME280;45749;51.140;17.184;2023-02-07T06:38:22;102667.91;;;-7.17;88.06
59877;BME280;45749;51.140;17.184;2023-02-07T06:40:48;102678.97;;;-7.18;88.07
59877;BME280;45749;51.140;17.184;2023-02-07T06:43:13;102676.41;;;-7.18;88.07
59877;BME280;45749;51.140;17.184;2023-02-07T06:45:39;102679.03;;;-7.16;88.32
59877;BME280;45749;51.140;17.184;2023-02-07T06:48:04;102670.50;;;-7.15;88.31
59877;BME280;45749;51.140;17.184;2023-02-07T06:50:30;102677.47;;;-7.13;88.31
59877;BME280;45749;51.140;17.184;2023-02-07T06:52:55;102670.63;;;-7.12;88.52
59877;BME280;45749;51.140;17.184;2023-02-07T06:55:26;102676.75;;;-7.09;88.62
59877;BME280;45749;51.140;17.184;2023-02-07T06:57:52;102683.69;;;-7.06;88.80
59877;BME280;45749;51.140;17.184;2023-02-07T07:00:17;102683.81;;;-7.03;88.71
59877;BME280;45749;51.140;17.184;2023-02-07T07:02:42;102683.94;;;-7.00;88.75
59877;BME280;45749;51.140;17.184;2023-02-07T07:05:08;102679.72;;;-6.98;88.94
59877;BME280;45749;51.140;17.184;2023-02-07T07:07:33;102676.38;;;-6.95;88.99
59877;BME280;45749;51.140;17.184;2023-02-07T07:09:58;102685.03;;;-6.93;89.45
59877;BME280;45749;51.140;17.184;2023-02-07T07:12:24;102689.44;;;-6.89;89.71
59877;BME280;45749;51.140;17.184;2023-02-07T07:14:49;102683.69;;;-6.83;89.59
59877;BME280;45749;51.140;17.184;2023-02-07T07:17:14;102685.56;;;-6.78;89.73
59877;BME280;45749;51.140;17.184;2023-02-07T07:19:39;102683.13;;;-6.75;89.64
59877;BME280;45749;51.140;17.184;2023-02-07T07:22:05;102684.16;;;-6.70;89.63
59877;BME280;45749;51.140;17.184;2023-02-07T07:24:30;102683.53;;;-6.64;89.83
59877;BME280;45749;51.140;17.184;2023-02-07T07:26:55;102689.63;;;-6.61;89.78
59877;BME280;45749;51.140;17.184;2023-02-07T07:29:21;102688.91;;;-6.56;89.78
59877;BME280;45749;51.140;17.184;2023-02-07T07:31:46;102695.91;;;-6.52;89.88
59877;BME280;45749;51.140;17.184;2023-02-07T07:34:12;102696.00;;;-6.49;89.97
59877;BME280;45749;51.140;17.184;2023-02-07T07:36:37;102700.31;;;-6.48;90.14
59877;BME280;45749;51.140;17.184;2023-02-07T07:39:03;102710.72;;;-6.45;90.33
59877;BME280;45749;51.140;17.184;2023-02-07T07:41:28;102707.38;;;-6.43;90.49
59877;BME280;45749;51.140;17.184;2023-02-07T07:43:54;102709.22;;;-6.39;90.60
59877;BME280;45749;51.140;17.184;2023-02-07T07:46:19;102705.06;;;-6.35;90.97
59877;BME280;45749;51.140;17.184;2023-02-07T07:48:45;102705.19;;;-6.32;91.15
59877;BME280;45749;51.140;17.184;2023-02-07T07:51:10;102719.84;;;-6.29;91.42
59877;BME280;45749;51.140;17.184;2023-02-07T07:53:35;102712.22;;;-6.26;91.60
59877;BME280;45749;51.140;17.184;2023-02-07T07:56:01;102711.50;;;-6.22;91.50
59877;BME280;45749;51.140;17.184;2023-02-07T07:58:26;102708.28;;;-6.17;91.48
59877;BME280;45749;51.140;17.184;2023-02-07T08:00:52;102703.28;;;-6.12;91.41
59877;BME280;45749;51.140;17.184;2023-02-07T08:03:18;102709.44;;;-6.08;91.54
59877;BME280;45749;51.140;17.184;2023-02-07T08:05:45;102714.72;;;-6.04;92.07
59877;BME280;45749;51.140;17.184;2023-02-07T08:08:11;102718.38;;;-5.97;92.12
59877;BME280;45749;51.140;17.184;2023-02-07T08:10:36;102721.03;;;-5.94;92.27
59877;BME280;45749;51.140;17.184;2023-02-07T08:13:02;102709.16;;;-5.89;92.79
59877;BME280;45749;51.140;17.184;2023-02-07T08:15:28;102709.38;;;-5.83;92.91
59877;BME280;45749;51.140;17.184;2023-02-07T08:17:53;102702.72;;;-5.76;93.10
59877;BME280;45749;51.140;17.184;2023-02-07T08:20:19;102693.50;;;-5.70;93.20
59877;BME280;45749;51.140;17.184;2023-02-07T08:22:44;102685.19;;;-5.62;93.33
59877;BME280;45749;51.140;17.184;2023-02-07T08:25:09;102683.69;;;-5.56;93.37
59877;BME280;45749;51.140;17.184;2023-02-07T08:27:36;102682.16;;;-5.49;93.37
59877;BME280;45749;51.140;17.184;2023-02-07T08:30:02;102684.91;;;-5.43;93.36
59877;BME280;45749;51.140;17.184;2023-02-07T08:32:28;102686.91;;;-5.34;93.52
59877;BME280;45749;51.140;17.184;2023-02-07T08:34:54;102675.09;;;-5.28;93.66
59877;BME280;45749;51.140;17.184;2023-02-07T08:37:22;102665.00;;;-5.20;93.58
59877;BME280;45749;51.140;17.184;2023-02-07T08:39:53;102677.25;;;-5.13;93.58
59877;BME280;45749;51.140;17.184;2023-02-07T08:42:21;102669.69;;;-5.07;93.71
59877;BME280;45749;51.140;17.184;2023-02-07T08:44:47;102666.47;;;-5.00;93.81
59877;BME280;45749;51.140;17.184;2023-02-07T08:47:29;102664.16;;;-4.90;93.74
59877;BME280;45749;51.140;17.184;2023-02-07T08:55:34;102667.53;;;-4.61;93.79
59877;BME280;45749;51.140;17.184;2023-02-07T10:18:46;102664.00;;;-1.86;89.58
59877;BME280;45749;51.140;17.184;2023-02-07T10:23:40;102666.97;;;-1.63;90.09
59877;BME280;45749;51.140;17.184;2023-02-07T10:31:02;102661.44;;;-1.26;89.16
59877;BME280;45749;51.140;17.184;2023-02-07T10:33:32;102667.53;;;-1.22;88.83
59877;BME280;45749;51.140;17.184;2023-02-07T10:36:03;102661.69;;;-1.07;90.02
59877;BME280;45749;51.140;17.184;2023-02-07T10:41:15;102649.81;;;-0.91;87.62
59877;BME280;45749;51.140;17.184;2023-02-07T10:43:42;102650.63;;;-0.92;87.41
59877;BME280;45749;51.140;17.184;2023-02-07T10:46:09;102648.94;;;-0.90;87.00
59877;BME280;45749;51.140;17.184;2023-02-07T10:48:36;102649.88;;;-0.85;87.73
59877;BME280;45749;51.140;17.184;2023-02-07T10:51:11;102643.06;;;-0.73;87.01
59877;BME280;45749;51.140;17.184;2023-02-07T10:53:44;102642.28;;;-0.67;87.13
59877;BME280;45749;51.140;17.184;2023-02-07T10:56:19;102647.50;;;-0.64;86.50
59877;BME280;45749;51.140;17.184;2023-02-07T10:58:45;102653.63;;;-0.57;87.24
59877;BME280;45749;51.140;17.184;2023-02-07T11:01:18;102649.34;;;-0.54;86.16
59877;BME280;45749;51.140;17.184;2023-02-07T11:03:44;102657.94;;;-0.56;86.58
59877;BME280;45749;51.140;17.184;2023-02-07T11:06:10;102661.44;;;-0.56;86.68
59877;BME280;45749;51.140;17.184;2023-02-07T11:08:38;102662.31;;;-0.54;86.52
59877;BME280;45749;51.140;17.184;2023-02-07T11:13:49;102660.56;;;-0.55;86.72
59877;BME280;45749;51.140;17.184;2023-02-07T11:16:16;102648.47;;;-0.54;86.57
59877;BME280;45749;51.140;17.184;2023-02-07T11:19:01;102651.09;;;-0.53;86.37
59877;BME280;45749;51.140;17.184;2023-02-07T11:24:11;102649.38;;;-0.52;86.74
59877;BME280;45749;51.140;17.184;2023-02-07T11:26:39;102651.97;;;-0.51;86.10
59877;BME280;45749;51.140;17.184;2023-02-07T11:29:12;102649.38;;;-0.52;85.81
59877;BME280;45749;51.140;17.184;2023-02-07T11:31:39;102647.66;;;-0.52;86.61
59877;BME280;45749;51.140;17.184;2023-02-07T11:36:49;102643.31;;;-0.50;85.87
59877;BME280;45749;51.140;17.184;2023-02-07T11:39:16;102632.94;;;-0.51;85.62
59877;BME280;45749;51.140;17.184;2023-02-07T11:41:51;102630.34;;;-0.50;86.06
59877;BME280;45749;51.140;17.184;2023-02-07T11:44:16;102632.97;;;-0.47;85.79
59877;BME280;45749;51.140;17.184;2023-02-07T11:46:44;102630.38;;;-0.47;86.11
59877;BME280;45749;51.140;17.184;2023-02-07T11:49:22;102627.00;;;-0.42;86.10
59877;BME280;45749;51.140;17.184;2023-02-07T11:51:51;102618.34;;;-0.41;85.81
59877;BME280;45749;51.140;17.184;2023-02-07T11:54:18;102616.66;;;-0.36;85.96
59877;BME280;45749;51.140;17.184;2023-02-07T11:56:47;102614.97;;;-0.33;85.99
59877;BME280;45749;51.140;17.184;2023-02-07T11:59:21;102623.66;;;-0.29;85.40
59877;BME280;45749;51.140;17.184;2023-02-07T12:01:47;102622.78;;;-0.28;85.44
59877;BME280;45749;51.140;17.184;2023-02-07T12:04:15;102616.75;;;-0.24;85.54
59877;BME280;45749;51.140;17.184;2023-02-07T12:06:52;102621.13;;;-0.20;85.31
59877;BME280;45749;51.140;17.184;2023-02-07T12:11:47;102610.75;;;-0.17;84.97
59877;BME280;45749;51.140;17.184;2023-02-07T12:14:59;102606.47;;;-0.15;84.91
59877;BME280;45749;51.140;17.184;2023-02-07T12:16:58;102605.63;;;-0.11;84.17
59877;BME280;45749;51.140;17.184;2023-02-07T12:19:33;102608.22;;;-0.12;84.09
59877;BME280;45749;51.140;17.184;2023-02-07T12:27:10;102592.69;;;-0.05;84.17
59877;BME280;45749;51.140;17.184;2023-02-07T12:32:30;102590.06;;;-0.08;83.54
59877;BME280;45749;51.140;17.184;2023-02-07T12:35:05;102596.16;;;-0.06;83.78
59877;BME280;45749;51.140;17.184;2023-02-07T12:37:48;102596.16;;;-0.04;83.47
59877;BME280;45749;51.140;17.184;2023-02-07T12:40:21;102591.84;;;-0.04;83.75
59877;BME280;45749;51.140;17.184;2023-02-07T12:43:03;102591.88;;;0.01;83.91
59877;BME280;45749;51.140;17.184;2023-02-07T12:48:03;102587.59;;;0.05;83.79
59877;BME280;45749;51.140;17.184;2023-02-07T12:56:31;102589.31;;;0.04;82.99
59877;BME280;45749;51.140;17.184;2023-02-07T12:58:55;102585.81;;;0.02;83.05
59877;BME280;45749;51.140;17.184;2023-02-07T13:09:06;102577.16;;;0.02;83.12
59877;BME280;45749;51.140;17.184;2023-02-07T13:11:40;102571.13;;;0.03;83.47
59877;BME280;45749;51.140;17.184;2023-02-07T13:14:24;102560.75;;;0.06;83.15
59877;BME280;45749;51.140;17.184;2023-02-07T13:19:25;102565.13;;;0.11;82.12
59877;BME280;45749;51.140;17.184;2023-02-07T13:22:00;102561.66;;;0.11;82.19
59877;BME280;45749;51.140;17.184;2023-02-07T13:24:27;102559.91;;;0.10;82.40
59877;BME280;45749;51.140;17.184;2023-02-07T13:26:54;102563.38;;;0.07;81.99
59877;BME280;45749;51.140;17.184;2023-02-07T13:29:21;102559.03;;;0.08;82.50
59877;BME280;45749;51.140;17.184;2023-02-07T13:34:23;102562.53;;;0.13;82.62
59877;BME280;45749;51.140;17.184;2023-02-07T13:36:49;102558.22;;;0.15;82.42
59877;BME280;45749;51.140;17.184;2023-02-07T13:49:38;102554.81;;;0.20;82.54
59877;BME280;45749;51.140;17.184;2023-02-07T13:57:00;102547.00;;;0.20;81.81
59877;BME280;45749;51.140;17.184;2023-02-07T14:02:29;102556.53;;;0.20;81.57
59877;BME280;45749;51.140;17.184;2023-02-07T14:04:57;102552.19;;;0.19;81.35
59877;BME280;45749;51.140;17.184;2023-02-07T14:07:24;102557.38;;;0.17;81.53
59877;BME280;45749;51.140;17.184;2023-02-07T14:09:53;102551.28;;;0.15;81.72
59877;BME280;45749;51.140;17.184;2023-02-07T14:12:25;102555.63;;;0.15;81.81
59877;BME280;45749;51.140;17.184;2023-02-07T14:14:51;102558.22;;;0.15;81.69
59877;BME280;45749;51.140;17.184;2023-02-07T14:19:52;102559.94;;;0.16;81.69
59877;BME280;45749;51.140;17.184;2023-02-07T14:22:19;102556.50;;;0.14;81.24
59877;BME280;45749;51.140;17.184;2023-02-07T14:27:31;102565.09;;;0.10;81.36
59877;BME280;45749;51.140;17.184;2023-02-07T14:45:30;102565.84;;;-0.08;81.37
59877;BME280;45749;51.140;17.184;2023-02-07T14:47:57;102565.84;;;-0.10;81.31
59877;BME280;45749;51.140;17.184;2023-02-07T14:50:23;102571.88;;;-0.11;81.32
59877;BME280;45749;51.140;17.184;2023-02-07T14:52:52;102575.34;;;-0.10;81.37
59877;BME280;45749;51.140;17.184;2023-02-07T14:55:24;102570.16;;;-0.12;80.92
59877;BME280;45749;51.140;17.184;2023-02-07T14:58:02;102577.91;;;-0.13;81.13
59877;BME280;45749;51.140;17.184;2023-02-07T15:00:41;102581.41;;;-0.13;81.09
59877;BME280;45749;51.140;17.184;2023-02-07T15:03:11;102584.88;;;-0.12;81.40
59877;BME280;45749;51.140;17.184;2023-02-07T15:05:50;102587.47;;;-0.12;81.45
59877;BME280;45749;51.140;17.184;2023-02-07T15:08:17;102585.72;;;-0.12;81.42
59877;BME280;45749;51.140;17.184;2023-02-07T15:10:44;102584.84;;;-0.14;81.48
59877;BME280;45749;51.140;17.184;2023-02-07T15:13:21;102585.72;;;-0.12;81.51
59877;BME280;45749;51.140;17.184;2023-02-07T15:15:52;102590.06;;;-0.12;81.67
59877;BME280;45749;51.140;17.184;2023-02-07T15:18:20;102590.91;;;-0.15;81.29
59877;BME280;45749;51.140;17.184;2023-02-07T15:20:47;102590.91;;;-0.15;81.45
59877;BME280;45749;51.140;17.184;2023-02-07T15:23:14;102590.00;;;-0.18;81.24
59877;BME280;45749;51.140;17.184;2023-02-07T15:25:40;102584.78;;;-0.21;81.26
59877;BME280;45749;51.140;17.184;2023-02-07T15:30:54;102586.50;;;-0.24;81.37
59877;BME280;45749;51.140;17.184;2023-02-07T15:33:21;102584.78;;;-0.23;81.64
59877;BME280;45749;51.140;17.184;2023-02-07T15:35:47;102589.97;;;-0.23;81.66
59877;BME280;45749;51.140;17.184;2023-02-07T15:38:15;102595.16;;;-0.21;81.64
59877;BME280;45749;51.140;17.184;2023-02-07T15:40:40;102600.34;;;-0.20;81.85
59877;BME280;45749;51.140;17.184;2023-02-07T15:43:18;102602.94;;;-0.20;81.41
59877;BME280;45749;51.140;17.184;2023-02-07T15:45:56;102603.84;;;-0.18;81.21
59877;BME280;45749;51.140;17.184;2023-02-07T15:48:22;102598.66;;;-0.19;81.03
59877;BME280;45749;51.140;17.184;2023-02-07T15:50:50;102591.72;;;-0.20;81.06
59877;BME280;45749;51.140;17.184;2023-02-07T15:53:18;102596.03;;;-0.21;81.32
59877;BME280;45749;51.140;17.184;2023-02-07T15:55:45;102600.34;;;-0.21;81.59
59877;BME280;45749;51.140;17.184;2023-02-07T16:00:43;102598.59;;;-0.26;81.70
59877;BME280;45749;51.140;17.184;2023-02-07T16:03:13;102602.03;;;-0.27;81.50
59877;BME280;45749;51.140;17.184;2023-02-07T16:05:44;102607.22;;;-0.28;81.21
59877;BME280;45749;51.140;17.184;2023-02-07T16:10:53;102608.06;;;-0.31;81.04
59877;BME280;45749;51.140;17.184;2023-02-07T16:13:19;102602.84;;;-0.35;81.47
59877;BME280;45749;51.140;17.184;2023-02-07T16:15:52;102606.25;;;-0.38;81.13
59877;BME280;45749;51.140;17.184;2023-02-07T16:21:02;102612.25;;;-0.45;81.43